Time;durP1;ratioP1;P1;durP2;ratioP2;P2;SDS_P1;SDS_P2;PMS_P1;PMS_P2;Temp;Humidity;BMP_temperature;BMP_pressure;BME280_temperature;BME280_humidity;BME280_pressure;Samples;Min_cycle;Max_cycle;Signal;HPM_P1;HPM_P2
2023/01/24 10:12:52;;;;;;;24.33;22.10;;;5.40;99.90;;;;;;5106580;27;20549;-84
2023/01/24 10:15:31;;;;;;;20.23;18.60;;;6.20;99.90;;;;;;5106738;28;20971;-84
2023/01/24 10:18:18;;;;;;;21.70;19.70;;;6.10;99.90;;;;;;5107200;28;20480;-84
2023/01/24 10:21:15;;;;;;;21.30;19.30;;;6.00;99.90;;;;;;5106864;28;20931;-84
2023/01/24 10:23:44;;;;;;;18.10;16.40;;;6.10;99.90;;;;;;5107047;28;20441;-84
2023/01/24 10:26:19;;;;;;;21.17;19.27;;;6.00;99.90;;;;;;5106739;28;20444;-85
2023/01/24 10:28:50;;;;;;;21.03;19.10;;;6.00;99.90;;;;;;5106385;28;20476;-84
2023/01/24 10:31:20;;;;;;;20.90;19.20;;;6.00;99.90;;;;;;5106242;28;20517;-85
2023/01/24 10:33:48;;;;;;;20.37;18.57;;;6.10;99.90;;;;;;5106423;28;20441;-85
2023/01/24 10:36:24;;;;;;;19.63;18.13;;;6.10;99.90;;;;;;5106577;28;20952;-84
2023/01/24 10:38:51;;;;;;;19.40;17.80;;;6.20;99.90;;;;;;5106276;28;21088;-84
2023/01/24 10:41:21;;;;;;;20.20;18.60;;;6.30;99.90;;;;;;5106262;28;20446;-84
2023/01/24 10:43:55;;;;;;;22.40;20.30;;;6.20;99.90;;;;;;5108117;28;20442;-84
2023/01/24 10:46:44;;;;;;;19.87;18.27;;;6.30;99.90;;;;;;5106238;28;20454;-85
2023/01/24 10:49:17;;;;;;;19.70;18.00;;;6.40;99.90;;;;;;5106716;28;20441;-85
2023/01/24 10:51:43;;;;;;;19.10;17.50;;;6.40;99.90;;;;;;5106435;28;20492;-84
2023/01/24 10:54:22;;;;;;;18.93;17.27;;;6.50;99.90;;;;;;5106280;28;20815;-85
2023/01/24 10:56:49;;;;;;;17.27;16.10;;;6.50;99.90;;;;;;5106157;28;20526;-85
2023/01/24 10:59:17;;;;;;;18.30;16.60;;;6.50;99.90;;;;;;5106049;28;20472;-85
2023/01/24 11:01:46;;;;;;;18.80;17.10;;;6.60;99.90;;;;;;5106698;28;20469;-84
2023/01/24 11:04:19;;;;;;;17.90;16.40;;;6.80;99.90;;;;;;5106355;28;20458;-85
2023/01/24 11:06:48;;;;;;;17.20;15.80;;;6.80;99.90;;;;;;5106059;28;20453;-87
2023/01/24 11:09:16;;;;;;;15.93;14.70;;;6.80;99.90;;;;;;5106081;28;20457;-85
2023/01/24 11:11:45;;;;;;;16.93;15.53;;;6.80;99.90;;;;;;5102550;28;20486;-85
2023/01/24 11:14:15;;;;;;;18.10;16.30;;;6.70;99.90;;;;;;5099827;28;20457;-84
2023/01/24 11:16:45;;;;;;;17.60;16.30;;;6.80;99.90;;;;;;5092923;28;20862;-86
2023/01/24 11:19:26;;;;;;;17.10;15.80;;;7.20;99.90;;;;;;5092469;28;20453;-86
2023/01/24 11:21:55;;;;;;;16.83;15.63;;;7.10;99.90;;;;;;5092507;28;20963;-85
2023/01/24 11:24:22;;;;;;;16.80;15.37;;;7.10;99.90;;;;;;5092264;28;20454;-85
2023/01/24 11:26:55;;;;;;;17.40;16.03;;;7.00;99.90;;;;;;5091976;28;20790;-86
2023/01/24 11:29:22;;;;;;;16.67;14.97;;;7.00;99.90;;;;;;5092095;28;20446;-85
2023/01/24 11:31:52;;;;;;;17.10;15.57;;;7.20;99.90;;;;;;5091877;28;20539;-85
2023/01/24 11:34:35;;;;;;;16.90;15.67;;;7.40;99.90;;;;;;5092295;28;20448;-86
2023/01/24 11:37:11;;;;;;;16.07;14.90;;;7.10;99.90;;;;;;5091824;28;20450;-84
2023/01/24 11:39:48;;;;;;;16.63;15.33;;;7.00;99.90;;;;;;5091742;28;20454;-86
2023/01/24 11:42:26;;;;;;;17.20;15.83;;;6.70;99.90;;;;;;5092030;28;20465;-85
2023/01/24 11:45:23;;;;;;;15.97;14.57;;;6.80;99.90;;;;;;5091651;28;20457;-86
2023/01/24 11:48:06;;;;;;;17.80;16.33;;;6.70;99.90;;;;;;5089010;28;20951;-86
2023/01/24 11:50:42;;;;;;;16.37;15.07;;;6.80;99.90;;;;;;5091648;28;20482;-86
2023/01/24 11:53:27;;;;;;;17.43;16.03;;;6.90;99.90;;;;;;5091556;28;20438;-85
2023/01/24 11:56:02;;;;;;;17.63;16.33;;;6.90;99.90;;;;;;5091502;28;20818;-85
2023/01/24 11:58:43;;;;;;;18.70;17.00;;;6.80;99.90;;;;;;5091558;28;20449;-85
2023/01/24 12:01:16;;;;;;;18.63;16.97;;;6.80;99.90;;;;;;5091739;28;20438;-85
2023/01/24 12:04:16;;;;;;;17.10;15.70;;;6.70;99.90;;;;;;5091693;28;20503;-86
2023/01/24 12:06:50;;;;;;;16.00;14.60;;;6.60;99.90;;;;;;5091319;28;20458;-85
2023/01/24 12:09:21;;;;;;;16.27;14.90;;;6.80;99.90;;;;;;5091175;28;21008;-85
2023/01/24 12:11:56;;;;;;;15.73;14.63;;;6.80;99.90;;;;;;5090648;28;20486;-85
2023/01/24 12:14:52;;;;;;;17.30;16.10;;;6.70;99.90;;;;;;5091272;28;20468;-85
2023/01/24 12:17:30;;;;;;;17.70;16.20;;;6.70;99.90;;;;;;5091019;28;20839;-85
2023/01/24 12:20:23;;;;;;;17.07;15.77;;;6.80;99.90;;;;;;5091480;28;20956;-86
2023/01/24 12:22:53;;;;;;;16.37;14.90;;;6.80;99.90;;;;;;5091141;28;20447;-85
2023/01/24 12:25:24;;;;;;;18.20;16.90;;;6.70;99.90;;;;;;5089947;28;20875;-85
2023/01/24 12:27:54;;;;;;;18.73;16.70;;;6.50;99.90;;;;;;5091007;28;20714;-85
2023/01/24 12:30:30;;;;;;;19.40;17.70;;;6.70;99.90;;;;;;5090623;28;20446;-85
2023/01/24 12:33:03;;;;;;;17.80;16.30;;;6.70;99.90;;;;;;5090868;28;20446;-84
2023/01/24 12:35:35;;;;;;;21.00;19.03;;;6.60;99.90;;;;;;5090821;28;20447;-85
2023/01/24 12:38:05;;;;;;;18.27;16.77;;;6.50;99.90;;;;;;5090514;28;20454;-85
2023/01/24 12:40:45;;;;;;;19.83;17.93;;;6.50;99.90;;;;;;5090505;28;20496;-83
2023/01/24 12:43:20;;;;;;;19.47;17.83;;;6.20;99.90;;;;;;5090767;28;20450;-84
2023/01/24 12:45:55;;;;;;;19.10;17.30;;;6.20;99.90;;;;;;5090592;28;20453;-83
2023/01/24 12:48:29;;;;;;;20.17;18.40;;;6.20;99.90;;;;;;5090390;28;20450;-84
2023/01/24 12:51:04;;;;;;;19.50;17.67;;;6.30;99.90;;;;;;5090895;28;20477;-85
2023/01/24 12:53:39;;;;;;;21.00;18.80;;;6.30;99.90;;;;;;5090271;28;20449;-84
2023/01/24 12:56:11;;;;;;;19.10;17.40;;;6.40;99.90;;;;;;5090183;28;20456;-85
2023/01/24 12:58:41;;;;;;;19.70;18.10;;;6.30;99.90;;;;;;5090222;28;20457;-85
2023/01/24 13:01:47;;;;;;;21.13;19.27;;;6.40;99.90;;;;;;5090013;28;20938;-84
2023/01/24 13:04:25;;;;;;;20.43;18.83;;;6.20;99.90;;;;;;5090552;28;20469;-84
2023/01/24 13:07:04;;;;;;;19.83;18.10;;;6.30;99.90;;;;;;5089960;28;20474;-84
2023/01/24 13:09:37;;;;;;;19.30;17.80;;;6.20;99.90;;;;;;5089872;28;20965;-84
2023/01/24 13:12:10;;;;;;;22.77;18.10;;;6.30;99.90;;;;;;5089714;28;21059;-83
2023/01/24 13:14:41;;;;;;;20.33;18.53;;;6.20;99.90;;;;;;5089863;28;20446;-85
2023/01/24 13:17:24;;;;;;;21.43;17.70;;;6.20;99.90;;;;;;5089905;28;20442;-84
2023/01/24 13:20:11;;;;;;;21.07;19.00;;;6.10;99.90;;;;;;5089870;28;20453;-84
2023/01/24 13:23:04;;;;;;;19.63;18.13;;;6.10;99.90;;;;;;5089643;28;20493;-84
2023/01/24 13:25:45;;;;;;;19.50;17.57;;;6.10;99.90;;;;;;5089799;28;20446;-83
2023/01/24 13:28:22;;;;;;;19.80;18.10;;;6.00;99.90;;;;;;5090049;28;20457;-84
2023/01/24 13:30:56;;;;;;;19.73;18.00;;;6.00;99.90;;;;;;5089833;28;20832;-83
2023/01/24 13:33:37;;;;;;;18.60;16.80;;;6.00;99.90;;;;;;5089756;28;20477;-84
2023/01/24 13:36:06;;;;;;;18.57;17.10;;;5.90;99.90;;;;;;5089260;28;20445;-83
2023/01/24 13:38:42;;;;;;;18.90;17.43;;;5.90;99.90;;;;;;5089322;28;20450;-83
2023/01/24 13:41:15;;;;;;;19.97;18.47;;;5.80;99.90;;;;;;5089388;28;20960;-84
2023/01/24 13:44:00;;;;;;;20.23;18.53;;;5.80;99.90;;;;;;5089756;28;20447;-82
2023/01/24 13:46:59;;;;;;;20.63;18.63;;;5.80;99.90;;;;;;5089756;28;20824;-83
2023/01/24 13:49:46;;;;;;;20.47;18.47;;;5.80;99.90;;;;;;5089869;28;20515;-83
2023/01/24 13:52:39;;;;;;;21.53;19.73;;;5.70;99.90;;;;;;5089394;28;20484;-83
2023/01/24 13:55:56;;;;;;;22.37;20.27;;;5.60;99.90;;;;;;5089501;28;20446;-84
2023/01/24 13:58:27;;;;;;;21.20;19.73;;;5.60;99.90;;;;;;5089381;28;20446;-85
2023/01/24 14:00:57;;;;;;;21.03;19.17;;;5.60;99.90;;;;;;5089484;28;20454;-85
2023/01/24 14:03:28;;;;;;;20.13;18.33;;;5.70;99.90;;;;;;5089376;28;20448;-85
2023/01/24 14:06:05;;;;;;;21.07;19.33;;;5.80;99.90;;;;;;5089379;28;20481;-84
2023/01/24 14:08:52;;;;;;;20.57;19.23;;;5.70;99.90;;;;;;5088965;28;20446;-85
2023/01/24 14:11:42;;;;;;;20.30;18.50;;;5.70;99.90;;;;;;5089056;28;20855;-84
2023/01/24 14:15:01;;;;;;;18.90;17.37;;;5.80;99.90;;;;;;5079214;28;20450;-85
2023/01/24 14:17:46;;;;;;;19.90;18.37;;;5.80;99.90;;;;;;5089301;28;20457;-84
2023/01/24 14:20:30;;;;;;;21.80;19.90;;;5.70;99.90;;;;;;5089520;28;20450;-85
2023/01/24 14:23:02;;;;;;;21.40;19.67;;;5.60;99.90;;;;;;5089366;28;20438;-85
2023/01/24 14:25:49;;;;;;;20.80;19.20;;;5.70;99.90;;;;;;5089253;28;20474;-84
2023/01/24 14:28:32;;;;;;;22.67;20.63;;;5.60;99.90;;;;;;5089031;28;20456;-84
2023/01/24 14:31:03;;;;;;;20.23;18.30;;;5.70;99.90;;;;;;5089478;28;20511;-85
2023/01/24 14:33:46;;;;;;;20.60;19.10;;;5.60;99.90;;;;;;5089380;28;20447;-84
2023/01/24 14:36:21;;;;;;;21.23;19.20;;;5.40;99.90;;;;;;5089738;28;20450;-84
2023/01/24 14:39:10;;;;;;;21.43;19.83;;;5.50;99.90;;;;;;5089570;28;20529;-83
2023/01/24 14:41:39;;;;;;;19.70;18.17;;;5.50;99.90;;;;;;5089361;28;20446;-83
2023/01/24 14:44:20;;;;;;;22.57;20.60;;;5.30;99.90;;;;;;5089095;28;20554;-84
2023/01/24 14:46:59;;;;;;;21.30;19.50;;;5.20;99.90;;;;;;5089012;28;20489;-84
2023/01/24 14:49:28;;;;;;;21.67;19.83;;;5.30;99.90;;;;;;5093133;28;20540;-84
2023/01/24 14:51:54;;;;;;;22.97;21.07;;;5.30;99.90;;;;;;5092759;28;20482;-84
2023/01/24 14:54:24;;;;;;;21.50;19.80;;;5.30;99.90;;;;;;5092796;28;20579;-84
2023/01/24 14:56:51;;;;;;;23.80;21.90;;;5.30;99.90;;;;;;5094495;28;20461;-83
2023/01/24 14:59:18;;;;;;;22.33;20.37;;;5.30;99.90;;;;;;5093033;28;20942;-83
2023/01/24 15:01:46;;;;;;;22.70;20.90;;;5.20;99.90;;;;;;5094822;28;20438;-84
2023/01/24 15:04:28;;;;;;;20.63;19.03;;;5.10;99.90;;;;;;5094993;28;20450;-83
2023/01/24 15:07:06;;;;;;;22.00;20.40;;;5.10;99.90;;;;;;5093584;28;20520;-83
2023/01/24 15:09:34;;;;;;;22.10;20.37;;;5.10;99.90;;;;;;5093267;28;20450;-83
2023/01/24 15:12:22;;;;;;;25.87;23.80;;;5.00;99.90;;;;;;5092682;28;20490;-84
2023/01/24 15:14:54;;;;;;;24.43;22.37;;;5.00;99.90;;;;;;5093991;28;20446;-83
2023/01/24 15:17:23;;;;;;;23.67;21.63;;;5.00;99.90;;;;;;5094105;28;20533;-83
2023/01/24 15:19:56;;;;;;;24.43;22.30;;;5.10;99.90;;;;;;5094954;28;20846;-84
2023/01/24 15:22:27;;;;;;;22.97;20.87;;;5.10;99.90;;;;;;5095607;28;20446;-83
2023/01/24 15:24:57;;;;;;;24.50;22.47;;;5.10;99.90;;;;;;5094331;28;20454;-83
2023/01/24 15:27:36;;;;;;;24.27;22.17;;;5.10;99.90;;;;;;5093091;28;20469;-84
2023/01/24 15:30:15;;;;;;;24.37;22.40;;;5.10;99.90;;;;;;5094106;28;20805;-85
2023/01/24 15:32:43;;;;;;;23.60;21.63;;;5.10;99.90;;;;;;5094569;28;20489;-83
2023/01/24 15:35:45;;;;;;;24.87;22.53;;;5.10;99.90;;;;;;5095328;28;20450;-83
2023/01/24 15:38:28;;;;;;;23.47;21.70;;;5.10;99.90;;;;;;5033328;28;20543;-85
2023/01/24 15:41:15;;;;;;;24.57;22.37;;;5.20;99.90;;;;;;5032241;28;20491;-83
2023/01/24 15:43:48;;;;;;;23.53;21.20;;;5.20;99.90;;;;;;5071948;28;20488;-83
2023/01/24 15:49:06;;;;;;;23.77;21.70;;;5.10;99.90;;;;;;5073063;28;20431;-82
2023/01/24 15:51:36;;;;;;;24.73;22.70;;;5.10;99.90;;;;;;5072833;28;20443;-83
2023/01/24 15:54:09;;;;;;;27.00;24.40;;;5.00;99.90;;;;;;5072262;28;20528;-83
2023/01/24 15:56:38;;;;;;;25.30;23.20;;;5.10;99.90;;;;;;5072127;28;20455;-83
2023/01/24 15:59:15;;;;;;;25.23;23.07;;;5.00;99.90;;;;;;5070817;28;20447;-83
2023/01/24 16:01:41;;;;;;;24.20;22.13;;;5.00;99.90;;;;;;5071671;28;20447;-83
2023/01/24 16:04:13;;;;;;;26.60;24.03;;;5.00;99.90;;;;;;5071365;28;20455;-83
2023/01/24 16:06:40;;;;;;;25.23;23.20;;;5.00;99.90;;;;;;5071820;28;20509;-83
2023/01/24 16:09:08;;;;;;;25.60;23.50;;;5.10;99.90;;;;;;5071107;28;20443;-83
2023/01/24 16:11:37;;;;;;;26.20;24.03;;;5.00;99.90;;;;;;5070811;28;20483;-82
2023/01/24 16:14:05;;;;;;;27.07;24.73;;;5.00;99.90;;;;;;5070560;28;20451;-82
2023/01/24 16:16:32;;;;;;;28.20;25.80;;;5.00;99.90;;;;;;5070625;28;20518;-83
2023/01/24 16:18:58;;;;;;;25.10;23.00;;;4.90;99.90;;;;;;5071553;28;20447;-84
2023/01/24 16:21:25;;;;;;;27.77;25.23;;;4.90;99.90;;;;;;5071709;28;20458;-82
2023/01/24 16:23:52;;;;;;;27.13;23.97;;;4.80;99.90;;;;;;5071351;28;20458;-83
2023/01/24 16:26:23;;;;;;;26.20;23.73;;;4.90;99.90;;;;;;5070785;28;20447;-83
2023/01/24 16:28:52;;;;;;;27.43;24.93;;;4.90;99.90;;;;;;5071780;28;20883;-83
2023/01/24 16:31:18;;;;;;;27.90;25.27;;;4.90;99.90;;;;;;5071371;28;20616;-84
2023/01/24 16:33:45;;;;;;;27.17;24.57;;;4.90;99.90;;;;;;5071312;28;20944;-82
2023/01/24 16:36:13;;;;;;;25.73;23.43;;;4.90;99.90;;;;;;5072462;28;20810;-84
2023/01/24 16:38:41;;;;;;;28.10;25.50;;;4.80;99.90;;;;;;5075238;28;20458;-83
2023/01/24 16:41:08;;;;;;;26.53;24.03;;;4.80;99.90;;;;;;5071310;28;20447;-83
2023/01/24 16:43:35;;;;;;;28.77;26.03;;;4.80;99.90;;;;;;5071484;28;20449;-84
2023/01/24 16:46:03;;;;;;;27.90;25.40;;;4.80;99.90;;;;;;5070941;28;20973;-83
2023/01/24 16:48:31;;;;;;;29.20;26.70;;;4.70;99.90;;;;;;5072092;28;20438;-84
2023/01/24 16:50:58;;;;;;;28.37;25.77;;;4.70;99.90;;;;;;5073035;28;21008;-84
2023/01/24 16:53:25;;;;;;;26.47;24.03;;;4.70;99.90;;;;;;5071068;28;21010;-84
2023/01/24 16:55:58;;;;;;;30.53;27.50;;;4.70;99.90;;;;;;5070525;28;20466;-85
2023/01/24 16:58:24;;;;;;;28.67;25.93;;;4.60;99.90;;;;;;5070206;28;20736;-84
2023/01/24 17:00:51;;;;;;;28.03;25.30;;;4.50;99.90;;;;;;5070828;28;20451;-84
2023/01/24 17:03:19;;;;;;;29.93;27.03;;;4.50;99.90;;;;;;5070634;28;20792;-83
2023/01/24 17:05:46;;;;;;;27.97;25.17;;;4.50;99.90;;;;;;5071040;28;20471;-83
2023/01/24 17:08:13;;;;;;;31.07;28.23;;;4.50;99.90;;;;;;5071051;28;20451;-84
2023/01/24 17:10:40;;;;;;;29.93;27.33;;;4.50;99.90;;;;;;5070202;28;21005;-83
2023/01/24 17:13:07;;;;;;;29.10;26.13;;;4.50;99.90;;;;;;5070387;28;20483;-83
2023/01/24 17:15:36;;;;;;;30.27;27.30;;;4.40;99.90;;;;;;5071553;28;20458;-84
2023/01/24 17:18:03;;;;;;;31.27;28.27;;;4.50;99.90;;;;;;5071040;28;20455;-83
2023/01/24 17:20:32;;;;;;;33.87;28.80;;;4.40;99.90;;;;;;5070924;28;20470;-85
2023/01/24 17:22:59;;;;;;;32.73;29.53;;;4.40;99.90;;;;;;5070510;28;20447;-82
2023/01/24 17:25:26;;;;;;;33.33;30.13;;;4.30;99.90;;;;;;5070554;28;20451;-83
2023/01/24 17:27:53;;;;;;;32.87;29.30;;;4.40;99.90;;;;;;5070208;28;20458;-82
2023/01/24 17:30:20;;;;;;;30.23;27.53;;;4.40;99.90;;;;;;5070187;28;21013;-82
2023/01/24 17:32:46;;;;;;;32.63;29.63;;;4.30;99.90;;;;;;5070445;28;20487;-81
2023/01/24 17:35:13;;;;;;;31.40;28.30;;;4.30;99.90;;;;;;5071299;28;21000;-83
2023/01/24 17:37:41;;;;;;;31.50;28.20;;;4.30;99.90;;;;;;5070774;28;20451;-82
2023/01/24 17:40:10;;;;;;;31.23;28.30;;;4.30;99.90;;;;;;5070617;28;20451;-82
2023/01/24 17:42:37;;;;;;;31.80;28.90;;;4.30;99.90;;;;;;5070216;28;20479;-84
2023/01/24 17:45:04;;;;;;;34.50;30.80;;;4.30;99.90;;;;;;5070446;28;20797;-81
2023/01/24 17:47:31;;;;;;;33.83;30.57;;;4.20;99.90;;;;;;5070346;28;20503;-82
2023/01/24 17:49:58;;;;;;;32.97;29.73;;;4.30;99.90;;;;;;5070306;28;20949;-81
2023/01/24 17:52:25;;;;;;;32.67;29.27;;;4.30;99.90;;;;;;5070266;28;21008;-81
2023/01/24 17:54:53;;;;;;;33.53;30.03;;;4.20;99.90;;;;;;5071598;28;20454;-82
2023/01/24 17:57:20;;;;;;;32.93;29.70;;;4.20;99.90;;;;;;5069988;28;20458;-83
